createdAt,value
2019-01-23T00:01:43.452Z,45.18
2019-01-23T00:06:46.985Z,45.14
2019-01-23T00:11:50.452Z,45.16
2019-01-23T00:16:53.913Z,45.24
2019-01-23T00:21:57.377Z,45.15
2019-01-23T00:27:00.837Z,45.21
2019-01-23T00:32:04.370Z,45.24
2019-01-23T00:37:07.836Z,45.20
2019-01-23T00:42:11.297Z,45.26
2019-01-23T00:47:14.761Z,45.24
2019-01-23T00:52:18.231Z,45.27
2019-01-23T00:57:21.865Z,45.26
2019-01-23T01:02:25.494Z,45.19
2019-01-23T01:07:29.626Z,45.22
2019-01-23T01:12:33.093Z,45.28
2019-01-23T01:17:36.554Z,45.29
2019-01-23T01:22:40.089Z,45.28
2019-01-23T01:27:43.549Z,45.29
2019-01-23T01:32:47.013Z,45.29
2019-01-23T01:37:50.540Z,45.29
2019-01-23T01:42:53.996Z,45.24
2019-01-23T01:47:57.457Z,45.31
2019-01-23T01:53:00.924Z,45.29
2019-01-23T01:58:04.553Z,45.34
2019-01-23T02:03:08.055Z,45.31
2019-01-23T02:08:11.551Z,45.30
2019-01-23T02:13:15.009Z,45.32
2019-01-23T02:18:18.470Z,45.32
2019-01-23T02:23:21.929Z,45.32
2019-01-23T02:28:25.393Z,45.36
2019-01-23T02:33:28.850Z,45.32
2019-01-23T02:38:32.317Z,45.32
2019-01-23T02:43:35.774Z,45.33
2019-01-23T02:48:39.233Z,45.39
2019-01-23T02:53:42.693Z,45.40
2019-01-23T02:58:46.152Z,45.36
2019-01-23T03:03:49.619Z,45.39
2019-01-23T03:08:53.082Z,45.40
2019-01-23T03:13:56.563Z,45.38
2019-01-23T03:19:00.022Z,45.41
2019-01-23T03:24:03.557Z,45.42
2019-01-23T03:29:07.019Z,45.42
2019-01-23T03:34:10.481Z,45.48
2019-01-23T03:39:13.938Z,45.42
2019-01-23T03:44:17.402Z,45.36
2019-01-23T03:49:20.865Z,45.41
2019-01-23T03:54:24.328Z,45.40
2019-01-23T03:59:32.153Z,45.46
2019-01-23T04:04:33.012Z,45.31
2019-01-23T04:09:36.476Z,45.38
2019-01-23T04:14:39.939Z,45.42
2019-01-23T04:19:43.397Z,45.36
2019-01-23T04:24:46.871Z,45.34
2019-01-23T04:29:50.339Z,45.42
2019-01-23T04:34:53.795Z,45.39
2019-01-23T04:39:57.256Z,45.38
2019-01-23T04:45:00.728Z,45.44
2019-01-23T04:50:06.226Z,45.38
2019-01-23T04:55:09.760Z,45.54
2019-01-23T05:00:15.837Z,45.46
2019-01-23T05:05:19.274Z,45.24
2019-01-23T05:10:22.801Z,45.10
2019-01-23T05:15:26.271Z,45.14
2019-01-23T05:20:29.730Z,45.14
2019-01-23T05:25:33.195Z,45.13
2019-01-23T05:30:36.657Z,45.21
2019-01-23T05:35:40.124Z,45.16
2019-01-23T05:40:43.590Z,45.17
2019-01-23T05:45:47.049Z,45.18
2019-01-23T05:50:50.518Z,45.19
2019-01-23T05:55:53.980Z,45.19
2019-01-23T06:00:57.453Z,44.96
2019-01-23T06:06:00.912Z,44.96
2019-01-23T06:11:04.385Z,45.13
2019-01-23T06:16:07.852Z,45.16
2019-01-23T06:21:11.317Z,45.11
2019-01-23T06:26:14.773Z,45.05
2019-01-23T06:31:18.245Z,45.04
2019-01-23T06:36:21.719Z,44.98
2019-01-23T06:41:25.182Z,44.95
2019-01-23T06:46:28.648Z,44.93
2019-01-23T06:51:32.116Z,44.90
2019-01-23T06:56:35.583Z,44.91
2019-01-23T07:01:39.052Z,44.90
2019-01-23T07:06:42.511Z,44.85
2019-01-23T07:11:45.976Z,44.80
2019-01-23T07:16:49.445Z,44.81
2019-01-23T07:21:52.908Z,44.76
2019-01-23T07:26:56.372Z,44.71
2019-01-23T07:31:59.830Z,44.61
2019-01-23T07:37:03.402Z,44.55
2019-01-23T07:42:06.861Z,44.28
2019-01-23T07:47:10.321Z,44.32
2019-01-23T07:52:13.782Z,44.27
2019-01-23T07:57:17.248Z,44.11
2019-01-23T08:02:20.711Z,44.52
2019-01-23T08:07:24.183Z,46.01
2019-01-23T08:12:27.654Z,46.47
2019-01-23T08:17:32.866Z,46.87
2019-01-23T08:22:36.305Z,46.87
2019-01-23T08:27:39.766Z,46.67
2019-01-23T08:32:43.228Z,46.73
2019-01-23T08:37:46.685Z,46.58
2019-01-23T08:42:50.386Z,46.41
2019-01-23T08:47:53.845Z,46.26
2019-01-23T08:52:57.310Z,46.05
2019-01-23T08:58:00.775Z,45.90
2019-01-23T09:03:04.942Z,45.75
2019-01-23T09:08:08.846Z,45.67
2019-01-23T09:13:12.309Z,45.59
2019-01-23T09:18:15.773Z,45.57
2019-01-23T09:23:19.238Z,45.54
2019-01-23T09:28:22.703Z,45.50
2019-01-23T09:33:34.880Z,45.41
2019-01-23T09:38:44.494Z,45.40
2019-01-23T09:44:24.231Z,45.30
2019-01-23T09:50:01.391Z,45.27
2019-01-23T09:55:08.608Z,45.44
2019-01-23T10:00:23.756Z,45.29
2019-01-23T10:05:27.245Z,45.27
2019-01-23T10:10:30.742Z,45.34
2019-01-23T10:15:40.216Z,45.30
2019-01-23T10:20:43.707Z,45.31
2019-01-23T10:25:47.192Z,45.21
2019-01-23T10:30:50.665Z,45.26
2019-01-23T10:35:54.148Z,45.31
2019-01-23T10:40:57.628Z,45.26
2019-01-23T10:46:01.105Z,45.24
2019-01-23T10:51:04.657Z,45.23
2019-01-23T10:56:08.144Z,45.23
2019-01-23T11:01:13.439Z,45.05
2019-01-23T11:06:17.048Z,45.08
2019-01-23T11:11:20.526Z,45.04
2019-01-23T11:16:24.011Z,45.30
2019-01-23T11:21:27.495Z,45.30
2019-01-23T11:26:30.974Z,45.21
2019-01-23T11:31:34.449Z,45.32
2019-01-23T11:36:37.927Z,45.23
2019-01-23T11:41:41.416Z,45.35
2019-01-23T11:46:44.897Z,45.48
2019-01-23T11:51:48.400Z,45.59
2019-01-23T11:56:51.925Z,45.67
2019-01-23T12:01:56.138Z,45.32
2019-01-23T12:06:59.779Z,45.07
2019-01-23T12:12:03.270Z,23.75
2019-01-23T12:17:06.756Z,22.49
2019-01-23T12:22:10.246Z,25.90
2019-01-23T12:27:13.732Z,33.31
2019-01-23T12:32:17.228Z,33.31
2019-01-23T12:37:20.715Z,34.74
2019-01-23T12:42:24.200Z,35.63
2019-01-23T12:47:27.684Z,36.34
2019-01-23T12:52:31.179Z,36.92
2019-01-23T12:57:34.659Z,37.38
2019-01-23T13:02:38.151Z,37.75
2019-01-23T13:07:41.642Z,38.09
2019-01-23T13:12:45.502Z,38.34
2019-01-23T13:17:49.055Z,38.38
2019-01-23T13:22:52.551Z,38.48
2019-01-23T13:27:57.329Z,38.70
2019-01-23T13:33:00.755Z,38.89
2019-01-23T13:38:06.182Z,39.08
2019-01-23T13:43:09.672Z,39.25
2019-01-23T13:48:13.530Z,39.68
2019-01-23T13:53:17.937Z,40.12
2019-01-23T13:58:21.455Z,41.88
2019-01-23T14:03:24.931Z,41.87
2019-01-23T14:08:28.732Z,41.77
2019-01-23T14:13:32.283Z,41.77
2019-01-23T14:18:35.758Z,41.85
2019-01-23T14:23:39.235Z,42.15
2019-01-23T14:28:42.710Z,42.20
2019-01-23T14:33:46.178Z,42.29
2019-01-23T14:38:49.664Z,42.50
2019-01-23T14:43:53.154Z,42.64
2019-01-23T14:48:56.818Z,42.50
2019-01-23T14:54:00.319Z,42.25
2019-01-23T14:59:03.805Z,42.37
2019-01-23T15:04:07.292Z,42.54
2019-01-23T15:09:10.775Z,42.54
2019-01-23T15:14:14.470Z,42.69
2019-01-23T15:19:18.093Z,42.79
2019-01-23T15:24:21.659Z,42.66
2019-01-23T15:29:25.505Z,42.71
2019-01-23T15:34:29.060Z,42.89
2019-01-23T15:39:32.669Z,43.09
2019-01-23T15:44:36.588Z,43.04
2019-01-23T15:49:40.146Z,42.94
2019-01-23T15:54:44.028Z,42.96
2019-01-23T15:59:47.759Z,42.92
2019-01-23T16:04:51.679Z,42.89
2019-01-23T16:09:55.509Z,42.74
2019-01-23T16:14:59.124Z,42.65
2019-01-23T16:20:02.686Z,42.98
2019-01-23T16:25:09.224Z,42.50
2019-01-23T16:30:15.807Z,40.07
2019-01-23T16:35:19.647Z,39.45
2019-01-23T16:40:23.236Z,40.14
2019-01-23T16:45:26.977Z,40.54
2019-01-23T16:50:31.090Z,40.72
2019-01-23T16:55:35.424Z,41.15
2019-01-23T17:00:39.655Z,41.44
2019-01-23T17:05:43.686Z,41.53
2019-01-23T17:10:47.605Z,41.68
2019-01-23T17:15:51.433Z,42.80
2019-01-23T17:20:55.351Z,44.48
2019-01-23T17:25:59.283Z,44.39
2019-01-23T17:31:03.106Z,44.12
2019-01-23T17:36:07.028Z,43.97
2019-01-23T17:41:10.958Z,43.90
2019-01-23T17:46:14.882Z,43.91
2019-01-23T17:51:19.072Z,43.89
2019-01-23T17:56:22.942Z,43.79
2019-01-23T18:01:26.866Z,43.90
2019-01-23T18:06:31.290Z,43.97
2019-01-23T18:11:35.230Z,44.01
2019-01-23T18:16:39.254Z,43.97
2019-01-23T18:21:43.282Z,43.88
2019-01-23T18:26:47.204Z,43.84
2019-01-23T18:31:51.431Z,43.60
2019-01-23T18:37:04.775Z,43.42
2019-01-23T18:42:14.953Z,43.33
2019-01-23T18:47:25.429Z,43.25
2019-01-23T18:52:29.459Z,43.29
2019-01-23T18:57:34.219Z,43.30
2019-01-23T19:02:38.445Z,43.32
2019-01-23T19:07:42.667Z,43.37
2019-01-23T19:12:46.909Z,43.37
2019-01-23T19:17:51.134Z,43.40
2019-01-23T19:22:55.672Z,43.45
2019-01-23T19:28:00.114Z,43.50
2019-01-23T19:33:04.472Z,43.51
2019-01-23T19:38:08.885Z,43.54
2019-01-23T19:43:13.116Z,43.55
2019-01-23T19:48:17.450Z,43.63
2019-01-23T19:53:21.840Z,43.69
2019-01-23T19:58:26.021Z,43.75
2019-01-23T20:03:30.448Z,43.78
2019-01-23T20:08:34.793Z,43.80
2019-01-23T20:13:38.923Z,43.84
2019-01-23T20:18:43.156Z,43.89
2019-01-23T20:23:47.393Z,43.90
2019-01-23T20:28:51.523Z,43.97
2019-01-23T20:33:55.958Z,43.98
2019-01-23T20:38:59.983Z,44.00
2019-01-23T20:44:04.321Z,44.01
2019-01-23T20:49:08.447Z,44.04
2019-01-23T20:54:12.482Z,44.04
2019-01-23T20:59:16.707Z,44.08
2019-01-23T21:04:20.939Z,44.07
2019-01-23T21:09:25.191Z,44.15
2019-01-23T21:14:29.226Z,44.19
2019-01-23T21:19:33.138Z,44.22
2019-01-23T21:24:37.063Z,44.27
2019-01-23T21:29:41.191Z,44.29
2019-01-23T21:34:45.323Z,44.32
2019-01-23T21:39:49.349Z,44.37
2019-01-23T21:44:53.276Z,44.39
2019-01-23T21:49:57.205Z,44.42
2019-01-23T21:55:00.924Z,44.44
2019-01-23T22:00:10.276Z,44.44
2019-01-23T22:05:14.827Z,44.46
2019-01-23T22:10:18.299Z,44.49
2019-01-23T22:15:24.675Z,44.50
2019-01-23T22:20:28.216Z,44.50
2019-01-23T22:25:31.691Z,44.53
2019-01-23T22:30:35.306Z,44.55
2019-01-23T22:35:38.783Z,44.58
2019-01-23T22:40:42.251Z,44.61
2019-01-23T22:45:45.721Z,44.66
2019-01-23T22:50:49.194Z,44.70
2019-01-23T22:55:52.663Z,44.74
2019-01-23T23:01:02.000Z,44.79
2019-01-23T23:06:05.812Z,44.78
2019-01-23T23:11:09.285Z,44.83
2019-01-23T23:16:12.760Z,44.82
2019-01-23T23:21:16.227Z,44.85
2019-01-23T23:26:19.707Z,44.89
2019-01-23T23:31:23.198Z,44.92
2019-01-23T23:36:26.689Z,44.96
2019-01-23T23:41:30.190Z,44.99
2019-01-23T23:46:33.703Z,44.98
2019-01-23T23:51:37.184Z,44.98
2019-01-23T23:56:40.670Z,45.02
